Time;durP1;ratioP1;P1;durP2;ratioP2;P2;SDS_P1;SDS_P2;PMS_P1;PMS_P2;Temp;Humidity;BMP_temperature;BMP_pressure;BME280_temperature;BME280_humidity;BME280_pressure;Samples;Min_cycle;Max_cycle;Signal;HPM_P1;HPM_P2
2020/12/31 00:01:44;;;;;;;6.47;4.17;;;2.60;99.90;;;0.85;100.00;99380.19;4922388;28;100210;-67
2020/12/31 00:04:10;;;;;;;5.93;4.30;;;2.70;99.90;;;0.83;100.00;99376.84;4909640;28;101229;-67
2020/12/31 00:06:38;;;;;;;6.73;4.03;;;2.60;99.90;;;0.77;100.00;99381.72;4909597;28;100549;-67
2020/12/31 00:09:04;;;;;;;6.63;4.53;;;2.50;99.90;;;0.70;100.00;99384.00;4909681;28;100398;-67
2020/12/31 00:11:31;;;;;;;8.60;4.97;;;2.50;99.90;;;0.77;100.00;99387.84;4909297;28;100143;-68
2020/12/31 00:13:58;;;;;;;4.67;4.13;;;2.50;99.90;;;0.76;100.00;99391.41;4908632;28;101019;-67
2020/12/31 00:16:25;;;;;;;6.83;4.10;;;3.40;99.90;;;0.78;100.00;99388.66;4909182;28;101348;-68
2020/12/31 00:18:52;;;;;;;5.83;4.30;;;2.30;99.90;;;0.66;100.00;99387.81;4909344;28;100000;-67
2020/12/31 00:21:18;;;;;;;5.17;3.90;;;2.30;99.90;;;0.76;100.00;99387.94;4909711;28;100307;-69
2020/12/31 00:23:46;;;;;;;7.40;4.10;;;2.20;99.90;;;0.59;100.00;99394.53;4914726;28;100581;-68
2020/12/31 00:26:12;;;;;;;6.00;3.63;;;2.10;99.90;;;0.68;100.00;99401.72;4912867;28;100359;-68
2020/12/31 00:28:39;;;;;;;5.80;4.00;;;2.30;99.90;;;0.65;100.00;99396.69;4909288;28;100382;-67
2020/12/31 00:31:06;;;;;;;5.90;4.00;;;2.20;99.90;;;0.58;100.00;99401.59;4926881;28;100005;-66
2020/12/31 00:33:33;;;;;;;6.20;4.00;;;2.10;99.90;;;0.55;100.00;99404.44;4909909;28;101657;-68
2020/12/31 00:35:59;;;;;;;5.63;4.20;;;2.50;99.90;;;0.55;100.00;99398.34;4928330;28;100430;-67
2020/12/31 00:38:26;;;;;;;4.13;3.40;;;2.10;99.90;;;0.51;100.00;99400.34;4909274;28;100077;-67
2020/12/31 00:40:54;;;;;;;6.43;3.77;;;2.10;99.90;;;0.48;100.00;99397.97;4908824;28;100248;-68
2020/12/31 00:43:21;;;;;;;7.53;3.77;;;2.00;99.90;;;0.34;100.00;99404.28;4908505;28;101440;-68
2020/12/31 00:45:48;;;;;;;6.23;3.80;;;2.00;99.90;;;0.30;100.00;99407.25;4912678;28;100911;-67
2020/12/31 00:48:15;;;;;;;6.73;4.20;;;1.90;99.90;;;0.38;100.00;99411.91;4927354;28;100100;-67
2020/12/31 00:50:42;;;;;;;6.43;4.30;;;2.20;99.90;;;0.31;100.00;99408.91;4910042;28;99955;-67
2020/12/31 00:53:08;;;;;;;6.43;3.97;;;1.90;99.90;;;0.26;100.00;99409.25;4908653;28;102842;-68
2020/12/31 00:55:37;;;;;;;5.60;3.90;;;2.10;99.90;;;0.23;100.00;99414.78;4909545;28;102146;-67
2020/12/31 00:58:05;;;;;;;5.33;3.93;;;1.80;99.90;;;0.18;100.00;99410.78;4907088;28;100268;-67
2020/12/31 01:00:36;;;;;;;6.47;4.23;;;1.80;99.90;;;0.17;100.00;99414.38;4890223;28;100160;-67
2020/12/31 01:03:08;;;;;;;5.20;4.03;;;1.70;99.90;;;0.24;100.00;99416.44;4908732;28;100773;-67
2020/12/31 01:05:35;;;;;;;5.63;3.80;;;1.70;99.90;;;0.27;100.00;99413.56;4908751;28;100350;-67
2020/12/31 01:08:01;;;;;;;6.73;4.13;;;1.70;99.90;;;0.22;100.00;99413.09;4909084;28;100108;-69
2020/12/31 01:10:28;;;;;;;5.83;4.03;;;1.60;99.90;;;0.11;100.00;99420.94;4908727;28;100188;-67
2020/12/31 01:12:55;;;;;;;5.60;4.00;;;1.60;99.90;;;0.17;100.00;99417.84;4907487;28;100661;-68
2020/12/31 01:15:23;;;;;;;7.77;4.37;;;1.60;99.90;;;0.14;100.00;99415.44;4907978;28;101335;-67
2020/12/31 01:17:50;;;;;;;6.27;4.37;;;3.30;99.90;;;0.18;100.00;99416.03;4908780;28;100188;-67
2020/12/31 01:20:17;;;;;;;7.47;4.70;;;1.60;99.90;;;0.12;100.00;99416.53;4908213;28;100155;-68
2020/12/31 01:22:44;;;;;;;5.40;4.00;;;1.50;99.90;;;0.21;100.00;99407.94;4908278;28;100584;-67
2020/12/31 01:25:10;;;;;;;5.03;4.47;;;1.70;99.90;;;0.27;100.00;99410.94;4911027;28;101373;-67
2020/12/31 01:27:38;;;;;;;4.23;3.83;;;1.60;99.90;;;0.35;100.00;99410.38;4927854;28;100084;-66
2020/12/31 01:30:05;;;;;;;5.57;3.97;;;2.50;99.90;;;0.33;100.00;99415.75;4928261;28;100307;-68
2020/12/31 01:32:32;;;;;;;7.40;4.47;;;1.50;99.90;;;0.33;100.00;99414.91;4927833;28;101027;-69
2020/12/31 01:34:59;;;;;;;5.90;4.13;;;1.60;99.90;;;0.32;100.00;99411.44;4926501;28;100658;-68
2020/12/31 01:37:26;;;;;;;5.00;4.13;;;1.70;99.90;;;0.27;100.00;99410.94;4927216;28;99958;-68
2020/12/31 01:39:53;;;;;;;6.17;3.73;;;1.70;99.90;;;0.38;100.00;99410.13;4927760;28;100526;-68
2020/12/31 01:42:19;;;;;;;5.03;3.50;;;1.70;99.90;;;0.34;100.00;99414.81;4927125;28;101384;-68
2020/12/31 01:44:48;;;;;;;4.50;4.03;;;1.70;99.90;;;0.25;100.00;99418.09;4927446;28;100274;-68
2020/12/31 01:47:15;;;;;;;4.17;3.70;;;1.60;99.90;;;0.35;100.00;99413.84;4927572;28;100388;-68
2020/12/31 01:49:43;;;;;;;5.77;4.00;;;1.80;99.90;;;0.41;100.00;99416.97;4909328;28;100142;-67
2020/12/31 01:52:14;;;;;;;5.03;3.30;;;2.70;99.90;;;0.43;100.00;99415.91;4925525;28;101319;-67
2020/12/31 01:54:44;;;;;;;4.80;4.10;;;1.70;99.90;;;0.46;100.00;99417.47;4927620;28;100847;-68
2020/12/31 01:57:10;;;;;;;4.90;3.57;;;1.70;99.90;;;0.49;100.00;99420.72;4927996;28;100365;-67
2020/12/31 01:59:37;;;;;;;5.97;4.07;;;1.70;99.90;;;0.54;100.00;99417.72;4928003;28;100147;-68
2020/12/31 02:02:04;;;;;;;5.40;4.17;;;1.80;99.90;;;0.64;100.00;99416.06;4926837;28;101080;-68
2020/12/31 02:04:32;;;;;;;5.27;3.73;;;1.70;99.90;;;0.64;100.00;99418.69;4910913;28;101161;-68
2020/12/31 02:07:00;;;;;;;4.87;4.10;;;1.70;99.90;;;0.55;100.00;99425.50;4911254;28;100082;-67
2020/12/31 02:09:27;;;;;;;5.33;3.97;;;2.00;99.90;;;0.47;100.00;99427.03;4911950;28;100276;-68
2020/12/31 02:11:54;;;;;;;5.80;3.80;;;1.90;99.90;;;0.47;100.00;99429.69;4928602;28;101783;-67
2020/12/31 02:14:21;;;;;;;6.40;4.30;;;1.80;99.90;;;0.46;100.00;99428.00;4928717;28;100765;-68
2020/12/31 02:16:48;;;;;;;4.50;4.10;;;1.80;99.90;;;0.55;100.00;99433.41;4930179;28;100369;-68
2020/12/31 02:19:16;;;;;;;4.77;3.90;;;1.80;99.90;;;0.52;100.00;99427.50;4923827;28;100212;-68
2020/12/31 02:21:45;;;;;;;4.87;4.00;;;2.50;99.90;;;0.58;100.00;99424.44;4910382;28;101703;-68
2020/12/31 02:24:13;;;;;;;4.63;4.20;;;1.80;99.90;;;0.61;100.00;99440.84;4910838;28;100663;-67
2020/12/31 02:26:42;;;;;;;9.30;4.03;;;1.80;99.90;;;0.53;100.00;99437.94;4910549;28;100241;-67
2020/12/31 02:29:12;;;;;;;5.27;3.70;;;1.90;99.90;;;0.50;100.00;99438.16;4910860;28;100442;-67
2020/12/31 02:31:49;;;;;;;5.87;3.93;;;1.80;99.90;;;0.37;100.00;99440.06;4892116;28;101706;-68
2020/12/31 02:34:16;;;;;;;6.43;4.10;;;2.20;99.90;;;0.39;100.00;99442.53;4910510;28;100281;-68
2020/12/31 02:36:43;;;;;;;6.03;4.43;;;1.70;99.90;;;0.31;100.00;99449.22;4925871;28;100151;-68
2020/12/31 02:39:13;;;;;;;5.23;4.10;;;1.90;99.90;;;0.28;100.00;99444.19;4930371;28;99937;-68
2020/12/31 02:41:41;;;;;;;4.70;4.20;;;2.00;99.90;;;0.30;100.00;99449.34;4929869;28;101569;-67
2020/12/31 02:44:08;;;;;;;4.73;4.17;;;1.90;99.90;;;0.28;100.00;99445.97;4930068;28;100590;-66
2020/12/31 02:46:36;;;;;;;5.30;4.37;;;2.00;99.90;;;0.23;100.00;99448.13;4928038;28;100123;-67
2020/12/31 02:49:03;;;;;;;5.30;4.10;;;1.90;99.90;;;0.19;100.00;99452.78;4911203;28;100130;-67
2020/12/31 02:51:30;;;;;;;7.80;4.03;;;2.00;99.90;;;0.07;100.00;99450.19;4909821;28;101141;-67
2020/12/31 02:53:57;;;;;;;4.70;3.87;;;1.90;99.90;;;0.00;100.00;99452.44;4910576;28;100564;-66
2020/12/31 02:56:25;;;;;;;6.47;4.23;;;1.80;99.90;;;-0.06;100.00;99455.50;4910206;28;100016;-67
2020/12/31 02:58:54;;;;;;;5.30;4.47;;;1.90;99.90;;;-0.06;100.00;99455.50;4910890;28;100505;-67
2020/12/31 03:01:22;;;;;;;5.20;4.43;;;1.80;99.90;;;-0.04;100.00;99458.88;4909956;28;100166;-67
2020/12/31 03:03:49;;;;;;;7.30;4.90;;;1.80;99.90;;;0.10;100.00;99456.09;4928737;28;100234;-68
2020/12/31 03:06:16;;;;;;;5.37;4.60;;;1.90;99.90;;;0.16;100.00;99453.00;4929744;28;100050;-67
2020/12/31 03:08:44;;;;;;;6.83;4.90;;;2.80;99.90;;;0.21;100.00;99461.41;4929991;28;99868;-67
2020/12/31 03:11:17;;;;;;;6.93;4.90;;;1.90;99.90;;;0.30;100.00;99455.44;4928564;28;100069;-67
2020/12/31 03:13:44;;;;;;;5.40;4.50;;;0.80;99.90;;;0.34;100.00;99450.81;4930074;28;100809;-67
2020/12/31 03:16:11;;;;;;;5.70;4.80;;;1.30;99.90;;;0.50;100.00;99448.69;4913652;28;100267;-66
2020/12/31 03:18:37;;;;;;;7.50;5.47;;;2.20;99.90;;;0.48;100.00;99449.78;4909993;28;100197;-66
2020/12/31 03:21:04;;;;;;;7.20;5.07;;;2.20;99.90;;;0.49;100.00;99451.47;4909806;28;101102;-68
2020/12/31 03:23:31;;;;;;;8.47;5.30;;;2.40;99.90;;;0.64;100.00;99445.00;4909985;28;100436;-67
2020/12/31 03:25:58;;;;;;;5.90;5.20;;;2.30;99.90;;;0.55;100.00;99448.34;4910494;28;100338;-67
2020/12/31 03:28:25;;;;;;;7.27;5.40;;;2.30;99.90;;;0.56;100.00;99448.25;4910275;28;100115;-67
2020/12/31 03:30:52;;;;;;;5.97;5.33;;;2.30;99.90;;;0.61;100.00;99446.09;4909336;28;100893;-67
2020/12/31 03:33:19;;;;;;;5.97;5.37;;;2.40;99.90;;;0.67;100.00;99453.53;4910301;28;100641;-68
2020/12/31 03:35:47;;;;;;;5.87;4.73;;;2.50;99.90;;;0.73;100.00;99454.03;4910129;28;99835;-67
2020/12/31 03:38:16;;;;;;;6.60;4.80;;;2.40;99.90;;;0.78;100.00;99455.34;4910302;28;100368;-67
2020/12/31 03:40:43;;;;;;;5.60;4.50;;;2.60;99.90;;;0.80;100.00;99455.22;4908684;28;101432;-67
2020/12/31 03:43:11;;;;;;;6.20;5.00;;;2.50;99.90;;;0.77;100.00;99453.66;4921347;28;100341;-68
2020/12/31 03:45:38;;;;;;;7.23;5.70;;;2.60;99.90;;;0.75;100.00;99449.47;4929309;28;100113;-68
2020/12/31 03:48:06;;;;;;;6.00;4.83;;;2.60;99.90;;;0.75;100.00;99452.09;4929804;28;100167;-67
2020/12/31 03:50:32;;;;;;;5.10;4.40;;;2.80;99.90;;;0.77;100.00;99456.31;4928721;28;100935;-67
2020/12/31 03:52:59;;;;;;;5.80;4.10;;;2.60;99.90;;;0.75;100.00;99455.56;4928944;28;101056;-67
2020/12/31 03:55:26;;;;;;;6.10;5.00;;;2.70;99.90;;;0.84;100.00;99456.69;4929521;28;100158;-67
2020/12/31 03:57:53;;;;;;;7.17;4.77;;;2.80;99.90;;;0.87;100.00;99452.00;4929876;28;100011;-66
2020/12/31 04:00:19;;;;;;;5.93;4.77;;;2.80;99.90;;;0.96;100.00;99451.31;4928871;28;101504;-68
2020/12/31 04:02:49;;;;;;;5.00;4.50;;;2.70;99.90;;;1.03;100.00;99449.03;4928833;28;100006;-66
2020/12/31 04:05:16;;;;;;;5.63;4.63;;;2.80;99.90;;;1.01;100.00;99448.31;4928972;28;100063;-66
2020/12/31 04:07:43;;;;;;;5.80;4.60;;;2.90;99.90;;;1.04;100.00;99437.53;4929064;28;100085;-67
2020/12/31 04:10:09;;;;;;;5.13;4.47;;;2.90;99.90;;;1.14;100.00;99438.50;4923701;28;100766;-67
2020/12/31 04:12:37;;;;;;;6.40;4.33;;;3.10;99.90;;;1.25;100.00;99435.88;4909239;28;101021;-67
2020/12/31 04:15:06;;;;;;;6.77;4.30;;;3.00;99.90;;;1.28;100.00;99437.44;4909671;28;100074;-67
2020/12/31 04:17:32;;;;;;;6.37;4.47;;;3.00;99.90;;;1.36;100.00;99435.06;4910002;28;100150;-68
2020/12/31 04:20:00;;;;;;;5.97;4.07;;;3.00;99.90;;;1.31;100.00;99437.19;4912151;28;101259;-67
2020/12/31 04:22:28;;;;;;;5.80;4.77;;;3.00;99.90;;;1.40;100.00;99432.03;4928073;28;100823;-67
2020/12/31 04:24:55;;;;;;;5.60;4.60;;;3.10;99.90;;;1.39;100.00;99434.78;4928374;28;100011;-66
2020/12/31 04:27:22;;;;;;;5.17;4.67;;;3.00;99.90;;;1.46;100.00;99441.28;4928721;28;100100;-66
2020/12/31 04:29:49;;;;;;;6.17;4.80;;;3.20;99.90;;;1.50;100.00;99437.41;4928295;28;100840;-67
2020/12/31 04:32:15;;;;;;;6.07;4.27;;;3.20;99.90;;;1.36;100.00;99435.88;4935923;28;101185;-67
2020/12/31 04:34:42;;;;;;;6.90;5.00;;;3.20;99.90;;;1.30;100.00;99439.00;4931856;28;100264;-67
2020/12/31 04:37:10;;;;;;;6.07;4.70;;;3.20;99.90;;;1.31;100.00;99438.03;4929348;28;99954;-68
2020/12/31 04:39:36;;;;;;;4.83;4.33;;;3.30;99.90;;;1.30;100.00;99440.78;4911261;28;101265;-69
2020/12/31 04:42:03;;;;;;;5.10;4.57;;;3.20;99.90;;;1.22;100.00;99441.41;4908384;28;99956;-67
2020/12/31 04:44:32;;;;;;;5.80;5.17;;;3.30;99.90;;;1.27;100.00;99443.66;4908947;28;100048;-68
2020/12/31 04:47:03;;;;;;;6.13;5.13;;;3.20;99.90;;;1.23;100.00;99450.16;4909924;28;100115;-65
2020/12/31 04:49:44;;;;;;;6.37;4.90;;;3.00;99.90;;;1.18;100.00;99449.66;4908914;28;100534;-67
2020/12/31 04:52:12;;;;;;;5.80;4.47;;;3.10;99.90;;;1.21;100.00;99449.44;4908632;28;101029;-67
2020/12/31 04:54:40;;;;;;;5.30;4.23;;;3.10;99.90;;;1.16;100.00;99448.94;4907641;28;100403;-67
2020/12/31 04:57:08;;;;;;;5.63;4.57;;;3.10;99.90;;;1.09;100.00;99459.13;4909386;28;100172;-68
2020/12/31 04:59:34;;;;;;;6.43;4.90;;;3.10;99.90;;;1.07;100.00;99458.41;4908710;28;101499;-67
2020/12/31 05:02:01;;;;;;;5.43;4.93;;;2.90;99.90;;;1.10;100.00;99462.59;4908475;28;100489;-67
2020/12/31 05:04:28;;;;;;;5.57;4.80;;;3.10;99.90;;;1.08;100.00;99466.19;4909758;28;100267;-69
2020/12/31 05:06:55;;;;;;;6.63;4.83;;;2.80;99.90;;;1.11;100.00;99464.28;4920252;28;100221;-67
2020/12/31 05:09:23;;;;;;;5.00;4.50;;;3.00;99.90;;;1.07;100.00;99461.88;4927917;28;100688;-67
2020/12/31 05:11:52;;;;;;;5.53;4.50;;;3.00;99.90;;;1.02;100.00;99469.28;4928054;28;100464;-68
2020/12/31 05:14:30;;;;;;;4.70;4.00;;;3.00;99.90;;;1.02;100.00;99465.81;4928223;28;100425;-68
2020/12/31 05:17:13;;;;;;;5.47;4.30;;;3.00;99.90;;;1.00;100.00;99468.53;4908984;28;100217;-68
2020/12/31 05:19:40;;;;;;;5.37;4.87;;;2.90;99.90;;;0.97;100.00;99473.22;4907555;28;101538;-68
2020/12/31 05:22:12;;;;;;;5.67;4.23;;;2.90;99.90;;;0.91;100.00;99474.53;4908678;28;100457;-68
2020/12/31 05:24:44;;;;;;;4.83;4.27;;;2.90;99.90;;;0.86;100.00;99479.31;4908727;28;100519;-68
2020/12/31 05:27:19;;;;;;;4.80;4.23;;;2.90;99.90;;;0.81;100.00;99484.09;4908794;28;100276;-68
2020/12/31 05:29:58;;;;;;;5.37;4.10;;;3.00;99.90;;;0.78;100.00;99481.69;4907747;28;101080;-68
2020/12/31 05:32:27;;;;;;;5.10;3.97;;;2.80;99.90;;;0.73;100.00;99481.22;4907941;28;100876;-67
2020/12/31 05:34:55;;;;;;;5.00;4.50;;;3.10;99.90;;;0.69;100.00;99483.22;4922297;28;100247;-65
2020/12/31 05:37:23;;;;;;;4.10;3.70;;;2.70;99.90;;;0.62;100.00;99484.63;4932185;28;100075;-67
2020/12/31 05:40:04;;;;;;;4.90;4.00;;;2.70;99.90;;;0.57;100.00;99491.19;4930981;28;100690;-67
2020/12/31 05:42:33;;;;;;;6.60;4.30;;;2.70;99.90;;;0.50;100.00;99488.16;4930564;28;100682;-68
2020/12/31 05:45:12;;;;;;;4.80;4.30;;;2.50;99.90;;;0.42;100.00;99487.91;4930910;28;100359;-67
2020/12/31 05:47:48;;;;;;;7.97;4.87;;;2.30;99.90;;;0.34;100.00;99488.47;4931224;28;99999;-68
2020/12/31 05:50:21;;;;;;;9.00;4.60;;;2.30;99.90;;;0.19;100.00;99488.75;4930767;28;100137;-67
2020/12/31 05:52:48;;;;;;;5.97;4.27;;;2.10;99.90;;;0.05;100.00;99491.56;4931168;28;100609;-67
2020/12/31 05:55:18;;;;;;;4.73;4.00;;;2.00;99.90;;;-0.06;100.00;99494.97;4931233;28;100294;-68
2020/12/31 05:57:48;;;;;;;5.33;3.80;;;1.90;99.90;;;-0.13;100.00;99494.56;4931699;28;100554;-68
2020/12/31 06:00:19;;;;;;;5.60;4.27;;;1.90;99.90;;;-0.28;100.00;99500.06;4929304;28;100286;-68
2020/12/31 06:02:50;;;;;;;5.30;4.00;;;1.80;99.90;;;-0.35;100.00;99504.91;4931188;28;100446;-68
2020/12/31 06:05:18;;;;;;;5.00;4.47;;;1.60;99.90;;;-0.46;100.00;99512.72;4931205;28;99954;-67
2020/12/31 06:07:47;;;;;;;5.43;4.23;;;1.50;99.90;;;-0.56;100.00;99516.94;4931516;28;100346;-68
2020/12/31 06:10:22;;;;;;;5.50;4.80;;;1.50;99.90;;;-0.69;100.00;99518.72;4930073;28;99941;-67
2020/12/31 06:12:52;;;;;;;4.93;3.90;;;1.20;99.90;;;-0.74;100.00;99521.66;4911395;28;101421;-68
2020/12/31 06:15:25;;;;;;;5.43;4.73;;;1.20;99.90;;;-0.75;100.00;99518.22;4931210;28;100458;-68
2020/12/31 06:17:53;;;;;;;5.17;4.07;;;1.10;99.90;;;-0.79;100.00;99519.38;4930870;28;100311;-67
2020/12/31 06:20:21;;;;;;;6.20;4.40;;;1.20;99.90;;;-0.81;100.00;99520.41;4930642;28;100884;-68
2020/12/31 06:23:13;;;;;;;31.83;23.90;;;0.30;99.90;;;-0.89;100.00;99528.00;4931101;28;100578;-68
2020/12/31 06:25:43;;;;;;;5.53;4.40;;;0.90;99.90;;;-0.98;100.00;99524.19;4930186;28;100245;-67
2020/12/31 06:28:13;;;;;;;11.43;8.83;;;0.80;99.90;;;-0.98;100.00;99529.44;4925871;28;100018;-68
2020/12/31 06:30:43;;;;;;;13.97;10.80;;;0.90;99.90;;;-0.99;100.00;99537.44;4910485;28;100452;-68
2020/12/31 06:33:24;;;;;;;11.20;10.00;;;0.80;99.90;;;-1.03;100.00;99531.53;4910585;28;101143;-67
2020/12/31 06:35:56;;;;;;;28.63;19.93;;;0.80;99.90;;;-1.03;100.00;99531.53;4910484;28;100354;-67
2020/12/31 06:38:34;;;;;;;41.97;33.00;;;0.70;99.90;;;-0.98;100.00;99539.09;4911541;28;100162;-67
2020/12/31 06:41:04;;;;;;;41.67;30.40;;;0.70;99.90;;;-1.09;100.00;99540.66;4910042;28;101240;-68
2020/12/31 06:43:33;;;;;;;44.63;33.20;;;0.80;99.90;;;-1.08;100.00;99544.13;4911929;28;100694;-67
2020/12/31 06:46:00;;;;;;;49.97;33.43;;;0.80;99.90;;;-1.01;100.00;99542.78;4929628;28;100259;-68
2020/12/31 06:48:37;;;;;;;21.40;16.33;;;0.60;99.90;;;-1.02;100.00;99551.63;4930014;28;100246;-68
2020/12/31 06:51:06;;;;;;;23.10;16.97;;;0.60;99.90;;;-0.96;100.00;99540.69;4918687;28;101702;-67
2020/12/31 06:53:36;;;;;;;16.57;13.77;;;0.60;99.90;;;-1.05;100.00;99543.94;4907249;28;100442;-68
2020/12/31 06:56:06;;;;;;;12.97;7.77;;;0.70;99.90;;;-1.12;100.00;99553.19;4909540;28;100077;-67
2020/12/31 06:58:33;;;;;;;17.63;15.27;;;1.80;99.90;;;-1.14;100.00;99555.91;4925307;28;100299;-67
2020/12/31 07:01:01;;;;;;;18.30;15.03;;;0.40;99.90;;;-1.05;100.00;99556.22;4924122;28;101794;-67
2020/12/31 07:03:47;;;;;;;15.47;13.77;;;0.30;99.90;;;-1.08;100.00;99562.50;4925358;28;100909;-66
2020/12/31 07:06:32;;;;;;;10.93;9.13;;;0.40;99.90;;;-1.17;100.00;99553.47;4925448;28;100297;-67
2020/12/31 07:09:05;;;;;;;7.13;5.70;;;0.30;99.90;;;-1.15;100.00;99561.25;4925097;28;100297;-67
2020/12/31 07:11:36;;;;;;;11.97;10.20;;;0.30;99.90;;;-1.21;100.00;99557.22;4924893;28;100921;-67
2020/12/31 07:14:21;;;;;;;13.37;10.97;;;1.50;99.90;;;-1.31;100.00;99560.56;4888774;28;101223;-67
2020/12/31 07:17:04;;;;;;;6.57;5.37;;;0.30;99.90;;;-1.22;100.00;99555.53;4904814;28;99867;-67
2020/12/31 07:19:40;;;;;;;6.37;5.73;;;0.40;99.90;;;-1.21;100.00;99556.38;4916193;28;99913;-68
2020/12/31 07:22:21;;;;;;;7.00;5.87;;;0.20;99.90;;;-1.13;100.00;99557.59;4944293;28;101826;-68
2020/12/31 07:24:55;;;;;;;4.67;4.10;;;0.20;99.90;;;-1.13;100.00;99556.75;4922226;28;100484;-68
2020/12/31 07:27:29;;;;;;;5.23;4.70;;;0.20;99.90;;;-1.06;100.00;99552.75;4904656;28;100317;-68
2020/12/31 07:29:59;;;;;;;7.67;6.27;;;0.30;99.90;;;-1.02;100.00;99548.97;4905118;28;100411;-68
2020/12/31 07:32:58;;;;;;;8.43;6.20;;;1.10;99.90;;;-0.96;100.00;99551.19;4904130;28;101386;-67
2020/12/31 07:35:32;;;;;;;5.33;4.83;;;0.30;99.90;;;-0.89;100.00;99554.25;4904826;28;100434;-68
2020/12/31 07:38:00;;;;;;;30.60;17.97;;;0.30;99.90;;;-0.85;100.00;99556.53;4905581;28;100066;-66
2020/12/31 07:40:39;;;;;;;12.03;10.57;;;0.60;99.90;;;-0.73;100.00;99552.25;4905779;28;100490;-67
2020/12/31 07:43:09;;;;;;;10.23;8.47;;;0.60;99.90;;;-0.62;100.00;99551.53;4904843;28;100120;-67
2020/12/31 07:45:37;;;;;;;7.67;6.00;;;0.80;99.90;;;-0.62;100.00;99559.41;4886176;28;101315;-66
2020/12/31 07:48:04;;;;;;;15.17;13.57;;;1.10;99.90;;;-0.52;100.00;99550.78;4905100;28;101482;-66
2020/12/31 07:50:31;;;;;;;11.73;10.03;;;1.30;99.90;;;-0.47;100.00;99559.19;4905720;28;100212;-66
2020/12/31 07:52:59;;;;;;;9.07;8.07;;;1.50;99.90;;;-0.39;100.00;99556.03;4916221;28;100174;-65
2020/12/31 07:55:27;;;;;;;12.30;11.10;;;1.60;99.90;;;-0.32;100.00;99553.81;4923799;28;100211;-67
2020/12/31 07:57:54;;;;;;;9.63;8.73;;;2.80;99.90;;;-0.28;100.00;99557.91;4924933;28;100292;-65
2020/12/31 08:00:22;;;;;;;9.20;7.93;;;1.80;99.90;;;-0.16;100.00;99555.25;4924362;28;99997;-65
2020/12/31 08:02:52;;;;;;;6.77;5.53;;;2.30;99.90;;;-0.04;100.00;99550.91;4924103;28;100927;-66
2020/12/31 08:05:20;;;;;;;6.07;5.47;;;2.30;99.90;;;0.00;100.00;99552.41;4923305;28;100943;-65
2020/12/31 08:07:51;;;;;;;5.93;5.33;;;2.40;99.90;;;0.03;100.00;99546.88;4924538;28;101790;-66
2020/12/31 08:10:20;;;;;;;7.00;5.83;;;2.70;99.90;;;0.13;100.00;99549.69;4924027;28;100085;-66
2020/12/31 08:12:55;;;;;;;5.80;4.77;;;2.70;99.90;;;0.16;100.00;99550.31;4924040;28;101447;-67
2020/12/31 08:15:24;;;;;;;7.60;5.90;;;3.50;99.90;;;0.30;100.00;99549.34;4922896;28;100904;-65
2020/12/31 08:17:53;;;;;;;8.73;6.70;;;3.10;99.90;;;0.25;100.00;99549.66;4914066;28;100152;-66
2020/12/31 08:20:22;;;;;;;6.33;4.83;;;3.40;99.90;;;0.34;100.00;99550.81;4912668;28;100188;-67
2020/12/31 08:22:52;;;;;;;8.60;6.83;;;3.40;99.90;;;0.35;100.00;99542.78;4923834;28;100664;-67
2020/12/31 08:25:25;;;;;;;6.93;6.23;;;3.50;99.90;;;0.41;100.00;99544.13;4924012;28;100522;-66
2020/12/31 08:27:54;;;;;;;15.47;13.93;;;3.70;99.90;;;0.49;100.00;99544.41;4924707;28;100032;-67
2020/12/31 08:30:23;;;;;;;6.57;5.97;;;3.90;99.90;;;0.60;100.00;99546.25;4923898;28;100020;-66
2020/12/31 08:32:57;;;;;;;6.47;5.87;;;4.00;99.90;;;0.68;100.00;99536.84;4924051;28;101469;-65
2020/12/31 08:35:28;;;;;;;11.00;9.83;;;4.20;99.90;;;0.86;100.00;99539.91;4924026;28;100341;-67
2020/12/31 08:38:05;;;;;;;6.27;5.57;;;4.30;99.90;;;0.81;100.00;99542.03;4924444;28;100155;-65
2020/12/31 08:40:33;;;;;;;7.80;7.00;;;5.50;99.90;;;0.92;100.00;99541.22;4923461;28;100159;-66
2020/12/31 08:43:00;;;;;;;9.90;9.00;;;4.70;99.90;;;1.01;100.00;99536.09;4922967;28;100916;-67
2020/12/31 08:45:31;;;;;;;6.53;5.43;;;5.90;99.90;;;1.16;100.00;99543.78;4924102;28;100358;-65
2020/12/31 08:48:22;;;;;;;5.97;5.13;;;5.10;99.90;;;1.22;100.00;99551.25;4918766;28;100258;-67
2020/12/31 08:51:06;;;;;;;7.07;4.90;;;6.30;99.90;;;1.31;100.00;99540.81;4912452;28;100254;-68
2020/12/31 08:53:48;;;;;;;5.00;4.50;;;5.50;99.90;;;1.19;100.00;99548.84;4914018;28;101136;-67
2020/12/31 08:56:14;;;;;;;6.23;4.87;;;5.80;99.90;;;1.62;100.00;99546.34;4922651;28;101000;-67
2020/12/31 08:58:41;;;;;;;6.03;4.47;;;5.80;99.90;;;1.61;100.00;99547.31;4923810;28;100275;-68
2020/12/31 09:01:23;;;;;;;7.20;5.70;;;5.90;99.80;;;1.87;100.00;99548.75;4923854;28;100345;-67
2020/12/31 09:03:49;;;;;;;4.70;4.20;;;6.20;99.70;;;1.90;100.00;99543.22;4923502;28;101383;-67
2020/12/31 09:06:24;;;;;;;5.47;3.70;;;6.40;97.90;;;1.91;100.00;99554.63;4922318;28;101166;-67
2020/12/31 09:08:52;;;;;;;4.17;3.77;;;5.70;95.10;;;2.27;100.00;99543.78;4922254;28;100043;-69
2020/12/31 09:11:26;;;;;;;4.97;4.13;;;6.80;96.30;;;2.29;100.00;99539.22;4922781;28;100284;-69
2020/12/31 09:13:53;;;;;;;5.57;4.27;;;7.80;95.40;;;2.28;100.00;99542.81;4922791;28;101549;-66
2020/12/31 09:16:28;;;;;;;4.43;4.00;;;7.80;93.60;;;2.54;100.00;99543.34;4921022;28;100293;-67
2020/12/31 09:18:59;;;;;;;4.90;4.23;;;7.00;94.40;;;2.56;100.00;99538.78;4923363;28;100353;-66
2020/12/31 09:21:28;;;;;;;5.63;4.53;;;7.40;93.00;;;2.59;100.00;99543.81;4922789;28;100209;-67
2020/12/31 09:23:55;;;;;;;6.33;5.70;;;7.50;91.20;;;2.46;100.00;99549.25;4922899;28;100626;-68
2020/12/31 09:26:26;;;;;;;7.47;5.40;;;7.40;90.20;;;2.63;100.00;99544.38;4922782;28;99942;-66
2020/12/31 09:28:53;;;;;;;5.90;4.87;;;7.50;89.70;;;2.68;100.00;99550.97;4923043;28;100404;-68
2020/12/31 09:31:22;;;;;;;7.17;6.13;;;7.50;90.60;;;2.64;100.00;99540.78;4922783;28;100410;-66
2020/12/31 09:33:50;;;;;;;6.87;6.17;;;7.60;89.20;;;2.92;100.00;99545.47;4921952;28;101641;-68
2020/12/31 09:36:23;;;;;;;7.40;6.57;;;7.70;90.60;;;2.89;100.00;99548.34;4921621;28;101607;-67
2020/12/31 09:38:50;;;;;;;6.60;5.90;;;8.60;90.40;;;2.93;100.00;99541.84;4923221;28;100072;-67
2020/12/31 09:41:16;;;;;;;7.67;6.03;;;8.70;89.50;;;2.81;100.00;99545.53;4904734;28;100255;-65
2020/12/31 09:43:43;;;;;;;6.27;5.67;;;8.00;86.10;;;2.75;100.00;99546.84;4902741;28;101354;-68
2020/12/31 09:46:10;;;;;;;7.77;5.80;;;7.90;85.20;;;2.92;100.00;99537.53;4903291;28;100425;-65
2020/12/31 09:48:37;;;;;;;8.77;6.17;;;8.00;85.90;;;2.80;100.00;99535.91;4903172;28;100223;-66
2020/12/31 09:51:04;;;;;;;7.43;6.17;;;7.90;84.80;;;2.80;100.00;99542.03;4902588;28;100070;-66
2020/12/31 09:53:30;;;;;;;7.00;5.70;;;7.80;84.70;;;3.04;100.00;99540.97;4902914;28;100915;-68
2020/12/31 09:55:57;;;;;;;8.93;7.00;;;7.80;84.80;;;2.91;100.00;99541.16;4902309;28;100626;-67
2020/12/31 09:58:23;;;;;;;8.50;6.77;;;8.20;84.20;;;2.93;100.00;99539.22;4902367;28;100118;-67
2020/12/31 10:00:50;;;;;;;8.13;6.23;;;7.80;84.40;;;3.00;100.00;99543.00;4902662;28;100111;-67
2020/12/31 10:03:16;;;;;;;9.67;7.03;;;7.90;85.00;;;3.09;100.00;99531.66;4888824;28;102233;-68
2020/12/31 10:05:44;;;;;;;8.10;6.00;;;8.10;84.80;;;3.08;100.00;99527.38;4909509;28;100134;-65
2020/12/31 10:08:11;;;;;;;7.53;6.57;;;7.80;84.20;;;3.26;100.00;99524.97;4920960;28;99982;-66
2020/12/31 10:10:38;;;;;;;8.90;6.40;;;8.00;85.50;;;3.04;100.00;99528.59;4921174;28;100131;-66
2020/12/31 10:13:06;;;;;;;10.43;7.47;;;8.20;83.30;;;3.24;100.00;99524.25;4905956;28;100610;-66
2020/12/31 10:15:33;;;;;;;7.83;6.60;;;8.10;84.00;;;3.19;100.00;99516.72;4915149;28;100850;-66
2020/12/31 10:17:59;;;;;;;8.43;6.77;;;8.20;83.10;;;3.24;100.00;99514.50;4885264;28;100149;-68
2020/12/31 10:20:26;;;;;;;8.10;6.93;;;8.20;83.50;;;3.31;100.00;99512.19;4918134;28;100205;-66
2020/12/31 10:22:53;;;;;;;10.77;7.70;;;8.30;81.50;;;3.16;100.00;99503.75;4924258;28;101336;-65
2020/12/31 10:25:20;;;;;;;12.57;7.53;;;8.20;80.50;;;3.33;100.00;99507.63;4923430;28;101210;-68
2020/12/31 10:27:46;;;;;;;8.03;7.23;;;8.30;81.50;;;3.36;100.00;99512.63;4917541;28;100088;-66